createdAt,value
2018-03-15T00:02:00.169Z,85.06
2018-03-15T00:04:35.405Z,85.87
2018-03-15T00:07:04.491Z,86.52
2018-03-15T00:09:33.697Z,86.48
2018-03-15T00:12:02.839Z,85.87
2018-03-15T00:14:32.250Z,86.46
2018-03-15T00:17:01.600Z,86.84
2018-03-15T00:19:30.953Z,87.53
2018-03-15T00:22:00.407Z,87.89
2018-03-15T00:24:29.525Z,88.45
2018-03-15T00:26:58.685Z,88.22
2018-03-15T00:29:28.146Z,87.66
2018-03-15T00:31:57.375Z,87.36
2018-03-15T00:34:26.329Z,87.52
2018-03-15T00:36:55.851Z,86.65
2018-03-15T00:39:25.255Z,86.86
2018-03-15T00:41:54.325Z,87.29
2018-03-15T00:44:23.658Z,86.84
2018-03-15T00:46:52.829Z,86.24
2018-03-15T00:49:21.940Z,87.43
2018-03-15T00:51:51.483Z,86.38
2018-03-15T00:54:20.482Z,86.39
2018-03-15T00:56:49.781Z,87.42
2018-03-15T00:59:19.014Z,86.87
2018-03-15T01:01:48.159Z,87.98
2018-03-15T01:04:17.274Z,87.50
2018-03-15T01:06:46.698Z,88.50
2018-03-15T01:09:16.010Z,87.93
2018-03-15T01:11:45.000Z,88.23
2018-03-15T01:14:14.174Z,87.63
2018-03-15T01:16:43.165Z,86.88
2018-03-15T01:19:12.233Z,86.09
2018-03-15T01:21:41.018Z,86.36
2018-03-15T01:24:10.357Z,84.94
2018-03-15T01:26:39.695Z,85.73
2018-03-15T01:29:08.785Z,84.51
2018-03-15T01:31:37.985Z,84.14
2018-03-15T01:34:07.259Z,84.52
2018-03-15T01:36:36.557Z,84.65
2018-03-15T01:39:05.691Z,84.78
2018-03-15T01:41:34.993Z,84.78
2018-03-15T01:44:04.144Z,84.06
2018-03-15T01:46:33.645Z,83.79
2018-03-15T01:49:02.902Z,83.99
2018-03-15T01:51:32.097Z,85.14
2018-03-15T01:54:01.448Z,85.47
2018-03-15T01:56:30.999Z,85.38
2018-03-15T01:59:00.029Z,85.30
2018-03-15T02:01:29.246Z,85.61
2018-03-15T02:03:58.446Z,85.13
2018-03-15T02:06:27.541Z,85.73
2018-03-15T02:08:56.661Z,86.46
2018-03-15T02:11:25.873Z,86.50
2018-03-15T02:13:54.825Z,87.02
2018-03-15T02:16:23.939Z,87.54
2018-03-15T02:18:52.949Z,87.80
2018-03-15T02:21:21.912Z,87.95
2018-03-15T02:23:50.934Z,88.24
2018-03-15T02:26:19.979Z,88.37
2018-03-15T02:28:49.293Z,88.91
2018-03-15T02:31:18.297Z,88.87
2018-03-15T02:33:47.238Z,88.76
2018-03-15T02:36:16.350Z,88.01
2018-03-15T02:38:45.802Z,87.32
2018-03-15T02:41:15.198Z,86.75
2018-03-15T02:43:44.647Z,87.30
2018-03-15T02:46:13.742Z,87.74
2018-03-15T02:48:42.994Z,87.46
2018-03-15T02:51:12.311Z,87.38
2018-03-15T02:53:41.841Z,87.49
2018-03-15T02:56:11.046Z,88.27
2018-03-15T02:58:40.037Z,88.62
2018-03-15T03:01:09.209Z,89.27
2018-03-15T03:03:38.494Z,89.37
2018-03-15T03:06:07.896Z,89.91
2018-03-15T03:08:37.033Z,89.94
2018-03-15T03:11:06.254Z,89.98
2018-03-15T03:13:35.697Z,89.59
2018-03-15T03:16:05.215Z,89.75
2018-03-15T03:18:34.913Z,89.68
2018-03-15T03:21:04.322Z,89.79
2018-03-15T03:23:33.523Z,90.04
2018-03-15T03:26:03.035Z,90.11
2018-03-15T03:28:32.569Z,90.10
2018-03-15T03:31:01.786Z,89.44
2018-03-15T03:33:30.870Z,88.99
2018-03-15T03:36:00.221Z,88.72
2018-03-15T03:38:29.725Z,87.79
2018-03-15T03:40:59.101Z,86.97
2018-03-15T03:43:28.079Z,86.68
2018-03-15T03:45:57.601Z,87.14
2018-03-15T03:48:27.033Z,87.74
2018-03-15T03:50:55.959Z,87.68
2018-03-15T03:53:25.180Z,88.22
2018-03-15T03:55:55.140Z,88.64
2018-03-15T03:58:24.337Z,89.00
2018-03-15T04:00:53.477Z,89.70
2018-03-15T04:03:22.668Z,89.91
2018-03-15T04:05:51.908Z,90.43
2018-03-15T04:08:21.073Z,90.67
2018-03-15T04:10:50.537Z,91.16
2018-03-15T04:13:19.881Z,91.94
2018-03-15T04:15:48.867Z,91.89
2018-03-15T04:18:18.233Z,91.92
2018-03-15T04:20:47.373Z,92.67
2018-03-15T04:23:16.465Z,91.80
2018-03-15T04:25:45.565Z,91.91
2018-03-15T04:28:14.936Z,92.16
2018-03-15T04:30:44.369Z,92.48
2018-03-15T04:33:13.729Z,92.29
2018-03-15T04:35:43.030Z,92.25
2018-03-15T04:38:12.620Z,92.55
2018-03-15T04:40:41.601Z,92.50
2018-03-15T04:43:10.937Z,92.42
2018-03-15T04:45:40.477Z,92.64
2018-03-15T04:48:09.540Z,92.19
2018-03-15T04:50:38.788Z,91.98
2018-03-15T04:53:07.929Z,91.96
2018-03-15T04:55:37.080Z,91.79
2018-03-15T04:58:06.380Z,91.72
2018-03-15T05:00:35.430Z,91.14
2018-03-15T05:03:04.769Z,90.03
2018-03-15T05:05:33.921Z,90.31
2018-03-15T05:08:03.259Z,90.30
2018-03-15T05:10:32.381Z,89.63
2018-03-15T05:13:01.358Z,89.13
2018-03-15T05:15:30.510Z,89.51
2018-03-15T05:17:59.881Z,88.96
2018-03-15T05:20:29.275Z,88.50
2018-03-15T05:22:58.717Z,88.94
2018-03-15T05:25:27.961Z,89.62
2018-03-15T05:27:57.135Z,90.23
2018-03-15T05:30:26.871Z,89.79
2018-03-15T05:32:55.985Z,89.51
2018-03-15T05:35:25.433Z,88.51
2018-03-15T05:37:54.700Z,89.08
2018-03-15T05:40:24.043Z,89.84
2018-03-15T05:42:53.066Z,89.52
2018-03-15T05:45:22.425Z,89.44
2018-03-15T05:47:52.043Z,87.88
2018-03-15T05:50:21.088Z,87.97
2018-03-15T05:52:50.549Z,87.40
2018-03-15T05:55:19.837Z,88.00
2018-03-15T05:57:49.392Z,86.60
2018-03-15T06:00:18.985Z,88.06
2018-03-15T06:02:48.041Z,86.80
2018-03-15T06:05:17.252Z,86.46
2018-03-15T06:07:46.442Z,86.00
2018-03-15T06:10:15.997Z,86.32
2018-03-15T06:12:45.359Z,84.93
2018-03-15T06:15:14.629Z,85.46
2018-03-15T06:17:44.773Z,85.36
2018-03-15T06:20:14.130Z,84.80
2018-03-15T06:22:43.313Z,85.02
2018-03-15T06:25:12.373Z,84.43
2018-03-15T06:27:41.492Z,84.83
2018-03-15T06:30:10.737Z,84.02
2018-03-15T06:32:40.215Z,83.91
2018-03-15T06:35:09.586Z,84.29
2018-03-15T06:37:38.685Z,84.09
2018-03-15T06:40:07.943Z,83.11
2018-03-15T06:42:37.311Z,82.75
2018-03-15T06:45:06.371Z,81.19
2018-03-15T06:47:35.866Z,84.95
2018-03-15T06:50:05.349Z,77.87
2018-03-15T06:52:34.883Z,79.13
2018-03-15T06:55:04.386Z,78.84
2018-03-15T06:57:33.685Z,78.20
2018-03-15T07:00:03.182Z,78.15
2018-03-15T07:02:32.614Z,77.52
2018-03-15T07:05:01.799Z,78.40
2018-03-15T07:07:31.023Z,78.83
2018-03-15T07:10:00.201Z,79.12
2018-03-15T07:12:30.722Z,79.45
2018-03-15T07:15:00.279Z,79.33
2018-03-15T07:17:30.045Z,79.96
2018-03-15T07:19:59.398Z,79.25
2018-03-15T07:22:28.650Z,77.98
2018-03-15T07:24:57.842Z,77.74
2018-03-15T07:27:27.245Z,76.51
2018-03-15T07:29:56.759Z,76.67
2018-03-15T07:32:26.313Z,77.33
2018-03-15T07:34:55.714Z,76.05
2018-03-15T07:37:25.197Z,76.58
2018-03-15T07:39:54.433Z,75.30
2018-03-15T07:42:23.938Z,75.86
2018-03-15T07:44:53.327Z,74.94
2018-03-15T07:47:22.814Z,74.15
2018-03-15T07:49:52.237Z,72.30
2018-03-15T07:52:21.554Z,71.38
2018-03-15T07:54:51.100Z,71.09
2018-03-15T07:57:20.589Z,70.95
2018-03-15T07:59:50.460Z,70.87
2018-03-15T08:02:19.601Z,69.56
2018-03-15T08:04:48.674Z,67.66
2018-03-15T08:07:17.961Z,68.20
2018-03-15T08:09:47.327Z,68.93
2018-03-15T08:12:16.607Z,68.21
2018-03-15T08:14:46.249Z,68.60
2018-03-15T08:17:15.921Z,67.73
2018-03-15T08:19:45.097Z,65.58
2018-03-15T08:22:14.321Z,65.05
2018-03-15T08:24:43.338Z,65.18
2018-03-15T08:27:12.838Z,64.32
2018-03-15T08:29:42.231Z,64.30
2018-03-15T08:32:11.417Z,62.87
2018-03-15T08:34:40.821Z,62.31
2018-03-15T08:37:09.885Z,61.68
2018-03-15T08:39:39.266Z,61.32
2018-03-15T08:42:08.526Z,60.50
2018-03-15T08:44:38.047Z,60.92
2018-03-15T08:47:07.239Z,60.13
2018-03-15T08:49:36.365Z,60.26
2018-03-15T08:52:05.666Z,60.71
2018-03-15T08:54:34.922Z,60.38
2018-03-15T08:57:04.698Z,60.95
2018-03-15T08:59:34.087Z,61.29
2018-03-15T09:02:03.298Z,62.01
2018-03-15T09:04:32.949Z,62.92
2018-03-15T09:07:02.309Z,61.99
2018-03-15T09:09:31.706Z,60.95
2018-03-15T09:12:00.853Z,61.46
2018-03-15T09:14:30.258Z,60.53
2018-03-15T09:16:59.559Z,59.42
2018-03-15T09:19:28.763Z,58.50
2018-03-15T09:21:57.922Z,57.60
2018-03-15T09:24:27.279Z,58.04
2018-03-15T09:26:56.406Z,57.10
2018-03-15T09:29:25.419Z,56.74
2018-03-15T09:31:54.581Z,56.59
2018-03-15T09:34:23.604Z,56.48
2018-03-15T09:36:53.149Z,56.75
2018-03-15T09:39:22.350Z,56.30
2018-03-15T09:41:51.909Z,55.28
2018-03-15T09:44:21.623Z,55.66
2018-03-15T09:46:51.038Z,55.88
2018-03-15T09:49:20.161Z,56.38
2018-03-15T09:51:49.194Z,55.90
2018-03-15T09:54:18.338Z,55.72
2018-03-15T09:56:47.570Z,55.25
2018-03-15T09:59:16.997Z,54.77
2018-03-15T10:01:46.575Z,54.78
2018-03-15T10:04:16.095Z,54.37
2018-03-15T10:06:45.489Z,54.24
2018-03-15T10:09:15.164Z,53.83
2018-03-15T10:11:44.381Z,54.27
2018-03-15T10:14:13.581Z,54.09
2018-03-15T10:16:43.198Z,54.18
2018-03-15T10:19:12.809Z,52.50
2018-03-15T10:21:42.156Z,52.22
2018-03-15T10:24:11.531Z,51.63
2018-03-15T10:26:40.858Z,51.85
2018-03-15T10:29:10.111Z,53.23
2018-03-15T10:31:39.431Z,53.37
2018-03-15T10:34:08.965Z,53.00
2018-03-15T10:36:38.582Z,52.83
2018-03-15T10:39:07.722Z,52.36
2018-03-15T10:41:37.271Z,52.50
2018-03-15T10:44:06.655Z,52.50
2018-03-15T10:46:36.105Z,52.03
2018-03-15T10:49:05.741Z,51.36
2018-03-15T10:51:35.049Z,50.90
2018-03-15T10:54:04.362Z,49.90
2018-03-15T10:56:33.753Z,49.13
2018-03-15T10:59:02.971Z,49.12
2018-03-15T11:01:37.963Z,47.57
2018-03-15T11:04:11.121Z,47.15
2018-03-15T11:06:41.061Z,45.98
2018-03-15T11:12:17.995Z,46.56
2018-03-15T11:14:47.157Z,45.26
2018-03-15T11:17:16.657Z,42.98
2018-03-15T11:19:46.037Z,44.63
2018-03-15T11:22:15.466Z,42.30
2018-03-15T11:24:44.709Z,40.23
2018-03-15T11:27:13.912Z,42.12
2018-03-15T11:29:43.214Z,42.16
2018-03-15T11:32:12.523Z,40.98
2018-03-15T11:34:42.279Z,43.53
2018-03-15T11:37:11.485Z,43.35
2018-03-15T11:39:40.509Z,43.31
2018-03-15T11:42:09.867Z,42.57
2018-03-15T11:44:38.869Z,40.13
2018-03-15T11:47:08.371Z,40.53
2018-03-15T11:49:37.821Z,42.07
2018-03-15T11:52:07.235Z,42.55
2018-03-15T11:54:36.373Z,41.97
2018-03-15T11:57:05.965Z,41.87
2018-03-15T11:59:35.138Z,41.62
2018-03-15T12:02:04.340Z,40.48
2018-03-15T12:04:33.566Z,40.89
2018-03-15T12:07:02.845Z,40.71
2018-03-15T12:09:32.126Z,44.99
2018-03-15T12:12:01.492Z,50.56
2018-03-15T12:14:30.997Z,51.67
2018-03-15T12:17:00.304Z,52.79
2018-03-15T12:19:29.643Z,54.38
2018-03-15T12:21:59.149Z,53.44
2018-03-15T12:24:28.575Z,53.73
2018-03-15T12:26:57.751Z,53.84
2018-03-15T12:29:27.245Z,53.61
2018-03-15T12:31:57.029Z,52.65
2018-03-15T12:34:26.265Z,52.19
2018-03-15T12:36:55.824Z,51.75
2018-03-15T12:39:25.442Z,52.98
2018-03-15T12:41:54.655Z,54.19
2018-03-15T12:44:24.702Z,54.79
2018-03-15T12:46:54.205Z,54.87
2018-03-15T12:49:23.550Z,54.00
2018-03-15T12:51:52.532Z,56.11
2018-03-15T12:54:21.701Z,57.10
2018-03-15T12:56:51.267Z,57.17
2018-03-15T12:59:20.497Z,56.92
2018-03-15T13:01:49.736Z,58.43
2018-03-15T13:04:18.699Z,60.56
2018-03-15T13:06:48.410Z,61.53
2018-03-15T13:09:17.756Z,60.07
2018-03-15T13:11:46.919Z,61.21
2018-03-15T13:14:16.109Z,60.92
2018-03-15T13:16:45.584Z,61.45
2018-03-15T13:19:15.021Z,73.34
2018-03-15T13:21:44.477Z,73.29
2018-03-15T13:24:14.039Z,71.81
2018-03-15T13:26:43.365Z,71.33
2018-03-15T13:29:13.214Z,70.24
2018-03-15T13:31:42.342Z,67.45
2018-03-15T13:34:11.754Z,67.61
2018-03-15T13:36:41.289Z,71.01
2018-03-15T13:39:20.999Z,69.40
2018-03-15T13:41:55.358Z,69.50
2018-03-15T13:44:24.627Z,70.71
2018-03-15T13:46:54.083Z,70.37
2018-03-15T13:49:23.525Z,70.40
2018-03-15T13:51:52.724Z,70.91
2018-03-15T13:54:22.031Z,72.35
2018-03-15T13:56:51.117Z,72.17
2018-03-15T13:59:20.185Z,72.89
2018-03-15T14:01:49.313Z,72.74
2018-03-15T14:04:18.776Z,71.87
2018-03-15T14:06:48.053Z,71.77
2018-03-15T14:09:17.457Z,72.72
2018-03-15T14:11:46.513Z,71.24
2018-03-15T14:14:15.567Z,71.13
2018-03-15T14:16:44.647Z,71.12
2018-03-15T14:19:13.943Z,71.31
2018-03-15T14:21:43.255Z,71.31
2018-03-15T14:24:12.650Z,71.79
2018-03-15T14:26:41.826Z,72.81
2018-03-15T14:29:11.209Z,71.75
2018-03-15T14:31:40.572Z,71.18
2018-03-15T14:34:09.857Z,72.07
2018-03-15T14:36:38.922Z,72.05
2018-03-15T14:39:08.065Z,74.29
2018-03-15T14:41:37.535Z,73.95
2018-03-15T14:44:06.617Z,76.30
2018-03-15T14:46:35.776Z,76.35
2018-03-15T14:49:04.863Z,77.33
2018-03-15T14:51:34.412Z,75.55
2018-03-15T14:54:03.721Z,76.40
2018-03-15T14:56:32.912Z,76.42
2018-03-15T14:59:02.473Z,75.45
2018-03-15T15:01:31.654Z,75.09
2018-03-15T15:04:01.108Z,74.70
2018-03-15T15:06:30.425Z,74.71
2018-03-15T15:08:59.732Z,74.42
2018-03-15T15:11:29.153Z,74.41
2018-03-15T15:13:58.145Z,74.75
2018-03-15T15:16:27.561Z,74.17
2018-03-15T15:18:56.876Z,75.14
2018-03-15T15:21:26.466Z,75.09
2018-03-15T15:23:55.770Z,72.98
2018-03-15T15:26:25.234Z,72.32
2018-03-15T15:28:54.802Z,72.70
2018-03-15T15:31:24.210Z,69.88
2018-03-15T15:33:53.637Z,67.33
2018-03-15T15:36:23.057Z,66.89
2018-03-15T15:38:52.499Z,67.48
2018-03-15T15:41:21.801Z,68.40
2018-03-15T15:43:51.053Z,68.17
2018-03-15T15:46:20.361Z,66.50
2018-03-15T15:48:49.434Z,67.53
2018-03-15T15:51:18.714Z,66.33
2018-03-15T15:53:47.651Z,61.15
2018-03-15T15:56:16.856Z,60.70
2018-03-15T15:58:45.946Z,60.59
2018-03-15T16:01:15.068Z,61.08
2018-03-15T16:03:44.381Z,59.39
2018-03-15T16:06:13.641Z,62.40
2018-03-15T16:08:43.103Z,65.55
2018-03-15T16:11:12.466Z,70.83
2018-03-15T16:13:41.985Z,71.30
2018-03-15T16:16:11.325Z,75.97
2018-03-15T16:18:41.868Z,77.50
2018-03-15T16:21:11.129Z,80.79
2018-03-15T16:23:40.515Z,81.23
2018-03-15T16:26:09.693Z,84.13
2018-03-15T16:28:39.119Z,84.02
2018-03-15T16:31:09.023Z,83.74
2018-03-15T16:33:38.305Z,84.75
2018-03-15T16:36:07.517Z,85.24
2018-03-15T16:38:37.224Z,85.24
2018-03-15T16:41:06.556Z,85.85
2018-03-15T16:43:35.673Z,87.51
2018-03-15T16:46:04.676Z,87.05
2018-03-15T16:48:33.655Z,86.89
2018-03-15T16:51:02.937Z,87.76
2018-03-15T16:53:32.197Z,87.51
2018-03-15T16:56:01.352Z,87.99
2018-03-15T16:58:30.638Z,86.56
2018-03-15T17:01:00.657Z,84.63
2018-03-15T17:03:29.918Z,85.38
2018-03-15T17:05:58.978Z,85.54
2018-03-15T17:08:27.903Z,84.53
2018-03-15T17:10:57.021Z,85.04
2018-03-15T17:13:26.379Z,84.52
2018-03-15T17:15:55.745Z,85.08
2018-03-15T17:18:25.094Z,85.20
2018-03-15T17:20:54.201Z,85.57
2018-03-15T17:23:23.567Z,85.01
2018-03-15T17:25:52.661Z,85.23
2018-03-15T17:28:21.737Z,85.75
2018-03-15T17:30:50.956Z,85.77
2018-03-15T17:33:20.221Z,84.90
2018-03-15T17:35:49.341Z,85.87
2018-03-15T17:38:18.845Z,85.79
2018-03-15T17:40:48.086Z,86.13
2018-03-15T17:43:17.013Z,85.50
2018-03-15T17:45:46.093Z,85.83
2018-03-15T17:48:15.110Z,85.76
2018-03-15T17:50:44.415Z,85.78
2018-03-15T17:53:13.749Z,85.19
2018-03-15T17:55:42.999Z,83.35
2018-03-15T17:58:12.310Z,83.37
2018-03-15T18:00:41.614Z,84.16
2018-03-15T18:03:10.758Z,83.98
2018-03-15T18:05:39.987Z,84.29
2018-03-15T18:08:09.629Z,84.33
2018-03-15T18:10:38.563Z,83.97
2018-03-15T18:13:07.863Z,83.94
2018-03-15T18:15:37.031Z,82.04
2018-03-15T18:18:06.141Z,82.24
2018-03-15T18:20:35.327Z,82.75
2018-03-15T18:23:04.629Z,84.07
2018-03-15T18:25:33.874Z,83.52
2018-03-15T18:28:02.989Z,84.73
2018-03-15T18:30:32.403Z,86.42
2018-03-15T18:33:01.385Z,86.39
2018-03-15T18:35:30.576Z,86.39
2018-03-15T18:37:59.909Z,86.18
2018-03-15T18:40:29.239Z,86.70
2018-03-15T18:42:58.205Z,87.56
2018-03-15T18:45:27.429Z,87.76
2018-03-15T18:47:56.668Z,88.16
2018-03-15T18:50:25.981Z,88.69
2018-03-15T18:52:54.997Z,89.16
2018-03-15T18:55:23.950Z,89.52
2018-03-15T18:57:53.291Z,89.74
2018-03-15T19:00:22.899Z,90.07
2018-03-15T19:02:51.887Z,90.08
2018-03-15T19:05:21.353Z,89.75
2018-03-15T19:07:50.719Z,89.19
2018-03-15T19:10:19.885Z,89.80
2018-03-15T19:12:48.895Z,90.15
2018-03-15T19:15:18.839Z,90.50
2018-03-15T19:17:47.952Z,90.40
2018-03-15T19:20:17.071Z,90.81
2018-03-15T19:22:46.370Z,91.00
2018-03-15T19:25:15.582Z,91.30
2018-03-15T19:27:44.672Z,90.62
2018-03-15T19:30:14.083Z,89.73
2018-03-15T19:32:43.327Z,89.41
2018-03-15T19:35:12.704Z,89.85
2018-03-15T19:37:41.982Z,90.32
2018-03-15T19:40:10.961Z,90.50
2018-03-15T19:42:40.163Z,90.96
2018-03-15T19:45:09.248Z,90.29
2018-03-15T19:47:38.650Z,90.56
2018-03-15T19:50:07.939Z,90.94
2018-03-15T19:52:37.055Z,91.58
2018-03-15T19:55:06.449Z,90.88
2018-03-15T19:57:35.977Z,91.28
2018-03-15T20:00:05.302Z,90.86
2018-03-15T20:02:34.557Z,91.14
2018-03-15T20:05:03.857Z,91.88
2018-03-15T20:07:33.426Z,91.96
2018-03-15T20:10:02.669Z,92.16
2018-03-15T20:12:31.965Z,93.04
2018-03-15T20:15:01.415Z,93.29
2018-03-15T20:17:30.574Z,93.03
2018-03-15T20:20:00.249Z,92.56
2018-03-15T20:22:35.383Z,92.83
2018-03-15T20:25:05.289Z,93.14
2018-03-15T20:27:39.805Z,92.50
2018-03-15T20:30:09.194Z,92.79
2018-03-15T20:32:44.248Z,93.22
2018-03-15T20:35:13.598Z,93.19
2018-03-15T20:37:43.102Z,93.20
2018-03-15T20:40:18.123Z,94.08
2018-03-15T20:42:47.229Z,94.51
2018-03-15T20:45:22.157Z,95.44
2018-03-15T20:47:56.889Z,95.01
2018-03-15T20:50:26.407Z,94.77
2018-03-15T20:52:55.909Z,95.93
2018-03-15T20:55:25.557Z,95.60
2018-03-15T20:57:55.023Z,95.61
2018-03-15T21:00:24.318Z,94.90
2018-03-15T21:02:53.658Z,95.48
2018-03-15T21:05:22.841Z,94.98
2018-03-15T21:07:52.062Z,95.47
2018-03-15T21:10:21.217Z,95.57
2018-03-15T21:12:50.621Z,96.30
2018-03-15T21:15:19.918Z,96.17
2018-03-15T21:17:48.863Z,95.79
2018-03-15T21:20:18.267Z,94.64
2018-03-15T21:22:47.417Z,93.71
2018-03-15T21:25:16.609Z,95.68
2018-03-15T21:27:45.919Z,96.77
2018-03-15T21:30:15.325Z,100.00
2018-03-15T21:32:44.657Z,96.78
2018-03-15T21:35:13.926Z,97.04
2018-03-15T21:37:43.321Z,98.28
2018-03-15T21:40:12.416Z,94.30
2018-03-15T21:42:41.723Z,94.94
2018-03-15T21:45:11.023Z,95.52
2018-03-15T21:47:40.321Z,96.71
2018-03-15T21:50:09.617Z,96.95
2018-03-15T21:52:39.752Z,96.36
2018-03-15T21:55:08.937Z,96.78
2018-03-15T21:57:38.397Z,96.65
2018-03-15T22:00:07.639Z,94.48
2018-03-15T22:02:37.118Z,94.57
2018-03-15T22:05:06.341Z,95.66
2018-03-15T22:07:35.767Z,96.35
2018-03-15T22:10:05.301Z,95.04
2018-03-15T22:12:34.739Z,96.08
2018-03-15T22:15:03.885Z,96.63
2018-03-15T22:17:33.089Z,96.52
2018-03-15T22:20:03.577Z,96.62
2018-03-15T22:22:32.891Z,96.92
2018-03-15T22:25:04.848Z,97.17
2018-03-15T22:27:39.170Z,96.77
2018-03-15T22:30:08.325Z,96.48
2018-03-15T22:32:37.778Z,96.95
2018-03-15T22:35:07.440Z,96.87
2018-03-15T22:37:37.185Z,97.11
2018-03-15T22:40:06.793Z,97.01
2018-03-15T22:42:36.601Z,97.41
2018-03-15T22:45:06.010Z,98.02
2018-03-15T22:47:35.263Z,97.56
2018-03-15T22:50:04.814Z,96.77
2018-03-15T22:52:34.179Z,96.60
2018-03-15T22:55:03.892Z,97.68
2018-03-15T22:57:36.364Z,99.37
2018-03-15T23:00:06.570Z,98.64
2018-03-15T23:02:35.546Z,98.33
2018-03-15T23:05:04.980Z,98.18
2018-03-15T23:07:34.570Z,97.15
2018-03-15T23:10:04.177Z,97.68
2018-03-15T23:12:33.650Z,98.10
2018-03-15T23:15:02.941Z,98.88
2018-03-15T23:17:31.991Z,98.89
2018-03-15T23:20:01.165Z,98.63
2018-03-15T23:22:30.551Z,98.12
2018-03-15T23:24:59.645Z,98.39
2018-03-15T23:27:29.241Z,98.89
2018-03-15T23:29:58.285Z,99.03
2018-03-15T23:32:27.537Z,99.03
2018-03-15T23:34:56.847Z,99.03
2018-03-15T23:37:26.076Z,98.41
2018-03-15T23:39:55.089Z,98.36
2018-03-15T23:42:24.451Z,98.52
2018-03-15T23:44:53.633Z,98.82
2018-03-15T23:47:22.839Z,99.62
2018-03-15T23:49:52.267Z,99.38
2018-03-15T23:52:21.732Z,99.60
2018-03-15T23:54:50.840Z,99.59
2018-03-15T23:57:20.047Z,98.96
2018-03-15T23:59:49.297Z,99.61
